createdAt,value
2023-03-26T06:32:46.548Z,2112.00
2023-03-26T06:33:46.543Z,2128.00
2023-03-26T06:34:46.466Z,2136.00
2023-03-26T06:35:46.630Z,2160.00
2023-03-26T06:36:47.619Z,2224.00
2023-03-26T06:37:47.578Z,2324.00
2023-03-26T06:38:47.512Z,2504.00
2023-03-26T06:39:48.544Z,2748.00
2023-03-26T06:40:47.498Z,2840.00
2023-03-26T06:41:47.484Z,2892.00
2023-03-26T06:43:07.746Z,2804.00
2023-03-26T06:43:48.517Z,2748.00
2023-03-26T06:44:47.504Z,2728.00
2023-03-26T06:45:47.462Z,2732.00
2023-03-26T06:46:47.547Z,2780.00
2023-03-26T06:47:47.558Z,2884.00
2023-03-26T06:48:48.176Z,3024.00
2023-03-26T06:49:47.428Z,3080.00
2023-03-26T06:50:47.360Z,3132.00
2023-03-26T06:51:47.438Z,3008.00
2023-03-26T06:52:47.358Z,2984.00
2023-03-26T06:53:48.355Z,3052.00
2023-03-26T06:54:47.349Z,3048.00
2023-03-26T06:55:47.360Z,2980.00
2023-03-26T06:56:47.400Z,2984.00
2023-03-26T06:57:47.429Z,2852.00
2023-03-26T06:58:47.358Z,2772.00
2023-03-26T06:59:47.312Z,2772.00
2023-03-26T07:00:47.577Z,2832.00
2023-03-26T07:01:48.053Z,2884.00
2023-03-26T07:02:47.351Z,2932.00
2023-03-26T07:03:47.444Z,2932.00
2023-03-26T07:04:47.292Z,2896.00
2023-03-26T07:05:47.238Z,2844.00
2023-03-26T07:06:47.328Z,2804.00
2023-03-26T07:07:47.416Z,2776.00
2023-03-26T07:08:47.533Z,2784.00
2023-03-26T07:09:47.245Z,2820.00
2023-03-26T07:10:47.228Z,2856.00
2023-03-26T07:11:47.214Z,2888.00
2023-03-26T07:12:47.252Z,2908.00
2023-03-26T07:13:49.422Z,2932.00
2023-03-26T07:14:47.262Z,2948.00
2023-03-26T07:15:47.267Z,2952.00
2023-03-26T07:16:47.176Z,2972.00
2023-03-26T07:17:47.278Z,2996.00
2023-03-26T07:18:47.283Z,3032.00
2023-03-26T07:19:47.190Z,3052.00
2023-03-26T07:20:47.113Z,3060.00
2023-03-26T07:21:47.362Z,3084.00
2023-03-26T07:22:47.054Z,3092.00
2023-03-26T07:23:47.642Z,3092.00
2023-03-26T07:24:47.109Z,3080.00
2023-03-26T07:25:47.275Z,3080.00
2023-03-26T07:26:47.033Z,3072.00
2023-03-26T07:27:47.355Z,3076.00
2023-03-26T07:29:04.717Z,3064.00
2023-03-26T07:29:53.532Z,3048.00
2023-03-26T07:30:47.350Z,3016.00
2023-03-26T07:31:47.271Z,2992.00
2023-03-26T07:32:47.222Z,2980.00
2023-03-26T07:33:47.127Z,2948.00
2023-03-26T07:34:47.052Z,2908.00
2023-03-26T07:35:47.102Z,2848.00
2023-03-26T07:36:47.070Z,2776.00
2023-03-26T07:37:48.197Z,2704.00
2023-03-26T07:38:46.960Z,2636.00
2023-03-26T07:39:47.121Z,2580.00
2023-03-26T07:40:46.987Z,2548.00
2023-03-26T07:41:47.168Z,2548.00
2023-03-26T07:42:47.137Z,2572.00
2023-03-26T07:43:47.339Z,2628.00
2023-03-26T07:44:48.490Z,2692.00
2023-03-26T07:45:46.945Z,2768.00
2023-03-26T07:46:47.008Z,2824.00
2023-03-26T07:47:46.862Z,2872.00
2023-03-26T07:48:46.950Z,2900.00
2023-03-26T07:49:46.965Z,2920.00
2023-03-26T07:50:46.892Z,2928.00
2023-03-26T07:51:46.810Z,2936.00
2023-03-26T07:52:46.841Z,2944.00
2023-03-26T07:53:46.914Z,2956.00
2023-03-26T07:54:47.076Z,2968.00
2023-03-26T07:55:46.803Z,2972.00
2023-03-26T07:56:46.871Z,2964.00
2023-03-26T07:57:47.008Z,2944.00
2023-03-26T07:58:46.798Z,2912.00
2023-03-26T07:59:48.936Z,2864.00
2023-03-26T08:00:46.760Z,2816.00
2023-03-26T08:01:46.854Z,2776.00
2023-03-26T08:02:46.981Z,2732.00
2023-03-26T08:03:46.880Z,2700.00
2023-03-26T08:04:46.936Z,2668.00
2023-03-26T08:05:46.783Z,2628.00
2023-03-26T08:06:47.303Z,2588.00
2023-03-26T08:07:46.719Z,2540.00
2023-03-26T08:08:46.639Z,2496.00
2023-03-26T08:09:46.683Z,2448.00
2023-03-26T08:10:46.639Z,2400.00
2023-03-26T08:11:46.785Z,2352.00
2023-03-26T08:12:46.609Z,2316.00
2023-03-26T08:13:46.693Z,2292.00
2023-03-26T08:14:46.822Z,2276.00
2023-03-26T08:15:46.820Z,2276.00
2023-03-26T08:16:46.735Z,2292.00
2023-03-26T08:17:48.460Z,2324.00
2023-03-26T08:18:46.940Z,2356.00
2023-03-26T08:19:46.501Z,2392.00
2023-03-26T08:20:46.701Z,2436.00
2023-03-26T08:21:46.632Z,2484.00
2023-03-26T08:22:46.585Z,2532.00
2023-03-26T08:23:50.931Z,2580.00
2023-03-26T08:24:46.538Z,2624.00
2023-03-26T08:25:46.551Z,2668.00
2023-03-26T08:26:46.521Z,2708.00
2023-03-26T08:27:46.436Z,2748.00
2023-03-26T08:28:46.687Z,2784.00
2023-03-26T08:29:46.493Z,2820.00
2023-03-26T08:30:46.513Z,2848.00
2023-03-26T08:31:46.446Z,2868.00
2023-03-26T08:32:46.405Z,2884.00
2023-03-26T08:33:46.411Z,2896.00
2023-03-26T08:34:46.382Z,2904.00
2023-03-26T08:35:46.744Z,2916.00
2023-03-26T08:36:46.368Z,2928.00
2023-03-26T08:37:46.687Z,2936.00
2023-03-26T08:38:46.950Z,2944.00
2023-03-26T08:39:48.077Z,2932.00
2023-03-26T08:40:47.125Z,2932.00
2023-03-26T08:41:46.329Z,2936.00
2023-03-26T08:42:46.444Z,2948.00
2023-03-26T08:43:46.382Z,2952.00
2023-03-26T08:44:46.244Z,2948.00
2023-03-26T08:45:46.605Z,2932.00
2023-03-26T08:46:46.351Z,2912.00
2023-03-26T08:47:46.691Z,2884.00
2023-03-26T08:48:46.249Z,2848.00
2023-03-26T08:49:49.333Z,2812.00
2023-03-26T08:50:46.321Z,2784.00
2023-03-26T08:51:49.123Z,2772.00
2023-03-26T08:52:47.164Z,2776.00
2023-03-26T08:53:46.180Z,2784.00
2023-03-26T08:54:46.519Z,2772.00
2023-03-26T08:55:46.198Z,2732.00
2023-03-26T08:56:46.267Z,2652.00
2023-03-26T08:57:46.181Z,2532.00
2023-03-26T08:58:46.923Z,2400.00
2023-03-26T08:59:46.140Z,2280.00
2023-03-26T09:00:46.138Z,2176.00
2023-03-26T09:01:46.200Z,2088.00
2023-03-26T09:02:46.139Z,2012.00
2023-03-26T09:03:46.144Z,1944.00
2023-03-26T09:04:46.192Z,1896.00
2023-03-26T09:05:46.030Z,1856.00
2023-03-26T09:06:46.144Z,1832.00
2023-03-26T09:07:46.107Z,1808.00
2023-03-26T09:08:54.510Z,1812.00
2023-03-26T09:09:47.009Z,1844.00
2023-03-26T09:10:46.006Z,1892.00
2023-03-26T09:11:45.963Z,1932.00
2023-03-26T09:12:45.990Z,1972.00
2023-03-26T09:13:45.985Z,1996.00
2023-03-26T09:14:46.007Z,2008.00
2023-03-26T09:15:45.907Z,2024.00
2023-03-26T09:16:45.998Z,2064.00
2023-03-26T09:17:45.949Z,2112.00
2023-03-26T09:18:45.907Z,2164.00
2023-03-26T09:19:45.933Z,2204.00
2023-03-26T09:20:45.871Z,2244.00
2023-03-26T09:21:45.988Z,2288.00
2023-03-26T09:22:45.870Z,2344.00
2023-03-26T09:23:45.864Z,2416.00
2023-03-26T09:24:45.871Z,2496.00
2023-03-26T09:25:45.929Z,2592.00
2023-03-26T09:26:45.827Z,2664.00
2023-03-26T09:27:45.800Z,2720.00
2023-03-26T09:28:45.780Z,2772.00
2023-03-26T09:29:45.831Z,2816.00
2023-03-26T09:30:45.874Z,2872.00
2023-03-26T09:31:45.822Z,2976.00
2023-03-26T09:32:45.805Z,3116.00
2023-03-26T09:33:45.782Z,3256.00
2023-03-26T09:34:45.746Z,3336.00
2023-03-26T09:35:45.807Z,3352.00
2023-03-26T09:36:46.298Z,3324.00
2023-03-26T09:37:57.969Z,3280.00
2023-03-26T09:38:46.713Z,3236.00
2023-03-26T09:39:45.783Z,3188.00
2023-03-26T09:40:45.686Z,3120.00
2023-03-26T09:41:45.737Z,3044.00
2023-03-26T09:42:45.655Z,2956.00
2023-03-26T09:43:45.666Z,2852.00
2023-03-26T09:44:45.767Z,2712.00
2023-03-26T09:45:45.639Z,2656.00
2023-03-26T09:46:46.576Z,2628.00
2023-03-26T09:47:46.685Z,2516.00
2023-03-26T09:48:45.771Z,2440.00
2023-03-26T09:49:45.688Z,2428.00
2023-03-26T09:50:45.617Z,2408.00
2023-03-26T09:51:45.603Z,2360.00
2023-03-26T09:52:45.557Z,2272.00
2023-03-26T09:53:45.718Z,2160.00
2023-03-26T09:54:45.630Z,2068.00
2023-03-26T09:55:45.570Z,2004.00
2023-03-26T09:56:45.565Z,1980.00
2023-03-26T09:57:45.574Z,1936.00
2023-03-26T09:58:45.575Z,1868.00
2023-03-26T09:59:45.518Z,1848.00
2023-03-26T10:00:45.628Z,1892.00
2023-03-26T10:01:45.522Z,2012.00
2023-03-26T10:02:47.410Z,2112.00
2023-03-26T10:03:45.503Z,2164.00
2023-03-26T10:04:45.740Z,2184.00
2023-03-26T10:05:45.541Z,2156.00
2023-03-26T10:06:45.529Z,2132.00
2023-03-26T10:07:46.367Z,2176.00
2023-03-26T10:08:45.488Z,2248.00
2023-03-26T10:09:45.582Z,2232.00
2023-03-26T10:10:45.471Z,2176.00
2023-03-26T10:11:45.427Z,2156.00
2023-03-26T10:12:45.422Z,2160.00
2023-03-26T10:13:45.483Z,2116.00
2023-03-26T10:14:45.428Z,1920.00
2023-03-26T10:15:45.349Z,1648.00
2023-03-26T10:16:45.456Z,1468.00
2023-03-26T10:17:45.385Z,1336.00
2023-03-26T10:18:46.427Z,1316.00
2023-03-26T10:19:45.356Z,1464.00
2023-03-26T10:20:45.599Z,1588.00
2023-03-26T10:21:45.339Z,1648.00
2023-03-26T10:22:45.344Z,1720.00
2023-03-26T10:23:45.601Z,1872.00
2023-03-26T10:24:45.372Z,2096.00
2023-03-26T10:25:45.879Z,2164.00
2023-03-26T10:27:08.383Z,2084.00
2023-03-26T10:27:46.265Z,1956.00
2023-03-26T10:28:45.333Z,1808.00
2023-03-26T10:29:45.355Z,1664.00
2023-03-26T10:30:45.330Z,1640.00
2023-03-26T10:31:45.281Z,1588.00
2023-03-26T10:32:45.976Z,1480.00
2023-03-26T10:33:45.333Z,1428.00
2023-03-26T10:34:45.308Z,1420.00
2023-03-26T10:35:45.445Z,1432.00
2023-03-26T10:36:45.535Z,1496.00
2023-03-26T10:37:45.622Z,1436.00
2023-03-26T10:38:45.402Z,1268.00
2023-03-26T10:39:45.214Z,1248.00
2023-03-26T10:40:45.289Z,1316.00
2023-03-26T10:41:45.333Z,1372.00
2023-03-26T10:42:45.287Z,1228.00
2023-03-26T10:43:49.776Z,1076.00
2023-03-26T10:44:47.222Z,1040.00
2023-03-26T10:45:47.228Z,1100.00
2023-03-26T10:46:45.242Z,1204.00
2023-03-26T10:47:45.134Z,1272.00
2023-03-26T10:48:45.265Z,1232.00
2023-03-26T10:49:45.033Z,1252.00
2023-03-26T10:50:45.316Z,1468.00
2023-03-26T10:51:45.426Z,1684.00
2023-03-26T10:52:44.970Z,1768.00
2023-03-26T10:53:44.962Z,1808.00
2023-03-26T10:54:49.419Z,1848.00
2023-03-26T10:55:46.012Z,1880.00
2023-03-26T10:56:45.003Z,1948.00
2023-03-26T10:57:44.988Z,2012.00
2023-03-26T11:00:08.709Z,2056.00
2023-03-26T11:00:10.337Z,2104.00
2023-03-26T11:01:10.807Z,2120.00
2023-03-26T11:02:10.447Z,2132.00
2023-03-26T11:03:13.521Z,2144.00
2023-03-26T11:04:10.539Z,2168.00
2023-03-26T11:05:11.040Z,2216.00
2023-03-26T11:06:11.138Z,2268.00
2023-03-26T11:07:10.246Z,2316.00
2023-03-26T11:08:10.782Z,2356.00
2023-03-26T11:09:13.904Z,2388.00
2023-03-26T11:10:10.511Z,2416.00
2023-03-26T11:11:10.364Z,2436.00
2023-03-26T11:12:25.661Z,2460.00
2023-03-26T11:13:12.211Z,2488.00
2023-03-26T11:14:24.372Z,2508.00
2023-03-26T11:15:11.160Z,2500.00
2023-03-26T11:16:10.953Z,2476.00
2023-03-26T11:17:14.879Z,2488.00
2023-03-26T11:18:11.185Z,2532.00
2023-03-26T11:19:10.104Z,2580.00
2023-03-26T11:20:10.093Z,2592.00
2023-03-26T11:21:19.249Z,2496.00
2023-03-26T11:22:11.111Z,2352.00
2023-03-26T11:23:10.449Z,2196.00
2023-03-26T11:24:10.096Z,2152.00
2023-03-26T11:25:10.587Z,2024.00
2023-03-26T11:26:10.202Z,1908.00
2023-03-26T11:27:15.170Z,1788.00
2023-03-26T11:28:12.208Z,1560.00
2023-03-26T11:29:31.782Z,1500.00
2023-03-26T11:30:13.699Z,1456.00
2023-03-26T11:33:54.914Z,1408.00
2023-03-26T11:34:54.213Z,1636.00
2023-03-26T11:35:54.168Z,1908.00
2023-03-26T11:36:54.209Z,2020.00
2023-03-26T11:37:54.061Z,2024.00
2023-03-26T11:38:54.022Z,1988.00
2023-03-26T11:39:56.457Z,1936.00
2023-03-26T11:40:54.567Z,1880.00
2023-03-26T11:41:54.657Z,1812.00
2023-03-26T11:42:54.240Z,1756.00
2023-03-26T11:43:53.946Z,1716.00
2023-03-26T11:44:55.077Z,1680.00
2023-03-26T11:45:55.195Z,1656.00
2023-03-26T11:46:55.092Z,1632.00
2023-03-26T11:47:55.143Z,1604.00
2023-03-26T11:48:55.067Z,1568.00
2023-03-26T11:49:55.262Z,1544.00
2023-03-26T11:50:55.619Z,1528.00
2023-03-26T11:54:09.654Z,1464.00
2023-03-26T11:55:09.679Z,1452.00
2023-03-26T11:56:09.646Z,1444.00
2023-03-26T11:57:10.979Z,1448.00
2023-03-26T11:58:11.218Z,1480.00
2023-03-26T11:59:10.758Z,1528.00
2023-03-26T12:00:10.830Z,1584.00
2023-03-26T12:01:10.749Z,1644.00
2023-03-26T12:02:11.773Z,1712.00
2023-03-26T12:03:10.707Z,1764.00
2023-03-26T12:04:10.781Z,1788.00
2023-03-26T12:05:10.667Z,1820.00
2023-03-26T12:06:10.714Z,1836.00
2023-03-26T12:07:10.753Z,1844.00
2023-03-26T12:08:10.641Z,1840.00
2023-03-26T12:09:10.659Z,1820.00
2023-03-26T12:10:18.489Z,1800.00
2023-03-26T12:11:11.613Z,1804.00
2023-03-26T12:12:10.581Z,1856.00
2023-03-26T12:13:10.601Z,1992.00
2023-03-26T12:14:10.616Z,2184.00
2023-03-26T12:15:10.588Z,2356.00
2023-03-26T12:16:10.607Z,2384.00
2023-03-26T12:17:10.566Z,2236.00
2023-03-26T12:18:11.230Z,2240.00
2023-03-26T12:19:10.512Z,2460.00
2023-03-26T12:20:10.539Z,2664.00
2023-03-26T12:21:10.578Z,2740.00
2023-03-26T12:22:10.497Z,2776.00
2023-03-26T12:23:10.471Z,2824.00
2023-03-26T12:24:10.474Z,2880.00
2023-03-26T12:25:10.438Z,2960.00
2023-03-26T12:26:10.491Z,3088.00
2023-03-26T12:27:10.431Z,3240.00
2023-03-26T12:28:10.445Z,3396.00
2023-03-26T12:29:10.431Z,3532.00
2023-03-26T12:30:10.454Z,3572.00
2023-03-26T12:31:10.449Z,3532.00
2023-03-26T12:32:10.378Z,3520.00
2023-03-26T12:33:10.413Z,3436.00
2023-03-26T12:34:10.353Z,3284.00
2023-03-26T12:35:10.352Z,3224.00
2023-03-26T12:36:10.401Z,3184.00
2023-03-26T12:37:10.319Z,3084.00
2023-03-26T12:38:10.326Z,2940.00
2023-03-26T12:40:07.851Z,2836.00
2023-03-26T12:40:14.975Z,2804.00
2023-03-26T12:44:42.939Z,2840.00
2023-03-26T12:44:44.673Z,2924.00
2023-03-26T12:44:48.106Z,2976.00
2023-03-26T12:44:54.488Z,3032.00
2023-03-26T12:45:11.268Z,3028.00
2023-03-26T12:47:56.147Z,2968.00
2023-03-26T12:47:57.630Z,2876.00
2023-03-26T12:48:10.328Z,2792.00
2023-03-26T12:49:10.318Z,2752.00
2023-03-26T12:50:10.194Z,2700.00
2023-03-26T12:51:10.225Z,2656.00
2023-03-26T12:52:10.302Z,2668.00
2023-03-26T12:53:10.197Z,2800.00
2023-03-26T12:54:10.127Z,2956.00
2023-03-26T12:55:12.247Z,3088.00
2023-03-26T12:56:10.176Z,3192.00
2023-03-26T12:57:11.975Z,3252.00
2023-03-26T12:58:14.017Z,3280.00
2023-03-26T12:59:10.151Z,3272.00
2023-03-26T13:00:10.118Z,3236.00
2023-03-26T13:01:10.146Z,3180.00
2023-03-26T13:02:10.114Z,3164.00
2023-03-26T13:03:10.159Z,3160.00
2023-03-26T13:04:10.156Z,3164.00
2023-03-26T13:05:10.094Z,3164.00
2023-03-26T13:06:10.111Z,3172.00
2023-03-26T13:07:10.018Z,3180.00
2023-03-26T13:08:10.091Z,3224.00
2023-03-26T13:09:10.039Z,3304.00
2023-03-26T13:10:09.997Z,3500.00
2023-03-26T13:11:10.089Z,3716.00
2023-03-26T13:12:09.969Z,3816.00
2023-03-26T13:13:09.995Z,3816.00
2023-03-26T13:14:09.983Z,3764.00
2023-03-26T13:15:09.978Z,3636.00
2023-03-26T13:16:09.979Z,3324.00
2023-03-26T13:17:09.977Z,2964.00
2023-03-26T13:18:09.926Z,2720.00
2023-03-26T13:19:09.945Z,2596.00
2023-03-26T13:20:09.922Z,2560.00
2023-03-26T13:21:09.850Z,2504.00
2023-03-26T13:22:10.046Z,2368.00
2023-03-26T13:23:09.890Z,2224.00
2023-03-26T13:24:09.859Z,2088.00
2023-03-26T13:25:09.863Z,2060.00
2023-03-26T13:26:09.825Z,2072.00
2023-03-26T13:27:09.879Z,2040.00
2023-03-26T13:28:09.850Z,2000.00
2023-03-26T13:29:09.854Z,1980.00
2023-03-26T13:30:09.787Z,1976.00
2023-03-26T13:31:09.842Z,2044.00
2023-03-26T13:32:09.802Z,2160.00
2023-03-26T13:33:09.747Z,2232.00
2023-03-26T13:34:09.814Z,2244.00
2023-03-26T13:35:09.773Z,2204.00
2023-03-26T13:36:22.459Z,2204.00
2023-03-26T13:37:11.769Z,2208.00
2023-03-26T13:38:09.691Z,2240.00
2023-03-26T13:39:09.731Z,2304.00
2023-03-26T13:40:09.676Z,2320.00
2023-03-26T13:41:09.727Z,2336.00
2023-03-26T13:42:09.692Z,2388.00
2023-03-26T13:43:09.709Z,2420.00
2023-03-26T13:44:09.706Z,2460.00
2023-03-26T13:45:09.643Z,2492.00
2023-03-26T13:46:09.674Z,2464.00
2023-03-26T13:47:09.646Z,2400.00
2023-03-26T13:48:09.657Z,2304.00
2023-03-26T13:49:09.614Z,2212.00
2023-03-26T13:50:09.572Z,2200.00
2023-03-26T13:51:09.581Z,2300.00
2023-03-26T13:52:09.751Z,2416.00
2023-03-26T13:53:09.597Z,2496.00
2023-03-26T13:54:09.524Z,2524.00
2023-03-26T13:55:09.555Z,2492.00
2023-03-26T13:56:09.530Z,2464.00
2023-03-26T13:57:09.582Z,2428.00
2023-03-26T13:58:09.531Z,2416.00
2023-03-26T13:59:09.537Z,2380.00
2023-03-26T14:00:09.526Z,2320.00
2023-03-26T14:01:09.552Z,2312.00
2023-03-26T14:02:09.538Z,2428.00
2023-03-26T14:03:09.509Z,2572.00
2023-03-26T14:04:10.454Z,2732.00
2023-03-26T14:05:09.472Z,2872.00
2023-03-26T14:06:09.464Z,2936.00
2023-03-26T14:07:09.439Z,2964.00
2023-03-26T14:08:09.409Z,2944.00
2023-03-26T14:09:09.380Z,2944.00
2023-03-26T14:10:09.428Z,2936.00
2023-03-26T14:11:09.501Z,2888.00
2023-03-26T14:12:20.944Z,2816.00
2023-03-26T14:13:10.337Z,2732.00
2023-03-26T14:14:09.435Z,2664.00
2023-03-26T14:15:09.355Z,2604.00
2023-03-26T14:16:09.386Z,2532.00
2023-03-26T14:17:09.343Z,2472.00
2023-03-26T14:18:09.917Z,2476.00
2023-03-26T14:19:09.282Z,2556.00
2023-03-26T14:20:09.340Z,2704.00
2023-03-26T14:21:09.289Z,2928.00
2023-03-26T14:22:09.312Z,3236.00
2023-03-26T14:23:09.295Z,3484.00
2023-03-26T14:24:09.313Z,3528.00
2023-03-26T14:25:09.280Z,3444.00
2023-03-26T14:26:09.258Z,3300.00
2023-03-26T14:27:09.250Z,3156.00
2023-03-26T14:28:09.237Z,3024.00
2023-03-26T14:29:09.209Z,2860.00
2023-03-26T14:30:10.151Z,2704.00
2023-03-26T14:31:09.279Z,2656.00
2023-03-26T14:32:09.194Z,2716.00
2023-03-26T14:33:09.220Z,2836.00
2023-03-26T14:34:09.126Z,2960.00
2023-03-26T14:35:09.168Z,3084.00
2023-03-26T14:36:09.403Z,3112.00
2023-03-26T14:37:09.152Z,3132.00
2023-03-26T14:38:09.096Z,3176.00
2023-03-26T14:39:09.106Z,3276.00
2023-03-26T14:40:09.087Z,3452.00
2023-03-26T14:41:09.111Z,3632.00
2023-03-26T14:42:09.118Z,3728.00
2023-03-26T14:43:09.665Z,3720.00
2023-03-26T14:44:09.113Z,3580.00
2023-03-26T14:45:09.141Z,3356.00
2023-03-26T14:46:09.003Z,3228.00
2023-03-26T14:47:09.132Z,3212.00
2023-03-26T14:48:10.334Z,3252.00
2023-03-26T14:49:10.015Z,3296.00
2023-03-26T14:50:09.141Z,3304.00
2023-03-26T14:51:08.974Z,3324.00
2023-03-26T14:52:09.005Z,3408.00
2023-03-26T14:53:08.946Z,3536.00
2023-03-26T14:54:08.923Z,3564.00
2023-03-26T14:55:08.957Z,3500.00
2023-03-26T14:56:08.961Z,3432.00
2023-03-26T14:57:09.163Z,3372.00
2023-03-26T14:58:08.996Z,3352.00
2023-03-26T14:59:08.930Z,3412.00
2023-03-26T15:00:08.929Z,3444.00
2023-03-26T15:01:08.880Z,3400.00
2023-03-26T15:02:08.988Z,3292.00
2023-03-26T15:03:08.931Z,3152.00
2023-03-26T15:04:08.991Z,3020.00
2023-03-26T15:05:08.846Z,2884.00
2023-03-26T15:06:08.858Z,2712.00
2023-03-26T15:07:08.793Z,2508.00
2023-03-26T15:08:08.843Z,2332.00
2023-03-26T15:09:08.863Z,2212.00
2023-03-26T15:10:08.805Z,2108.00
2023-03-26T15:11:08.837Z,2004.00
2023-03-26T15:12:12.758Z,1908.00
2023-03-26T15:13:08.813Z,1820.00
2023-03-26T15:14:08.814Z,1724.00
2023-03-26T15:15:08.752Z,1632.00
2023-03-26T15:16:08.773Z,1540.00
2023-03-26T15:17:08.741Z,1436.00
2023-03-26T15:18:08.743Z,1352.00
2023-03-26T15:19:08.704Z,1284.00
2023-03-26T15:20:08.696Z,1232.00
2023-03-26T15:21:08.664Z,1208.00
2023-03-26T15:22:08.731Z,1224.00
2023-03-26T15:23:08.690Z,1268.00
2023-03-26T15:24:08.665Z,1316.00
2023-03-26T15:25:08.764Z,1336.00
2023-03-26T15:26:08.650Z,1344.00
2023-03-26T15:27:08.609Z,1336.00
2023-03-26T15:28:08.639Z,1296.00
2023-03-26T15:29:08.648Z,1268.00
2023-03-26T15:30:08.571Z,1280.00
2023-03-26T15:31:08.568Z,1280.00
2023-03-26T15:32:08.611Z,1276.00
2023-03-26T15:33:08.696Z,1276.00
2023-03-26T15:34:08.570Z,1276.00
2023-03-26T15:35:08.584Z,1244.00
2023-03-26T15:36:08.771Z,1220.00
2023-03-26T15:37:08.496Z,1208.00
2023-03-26T15:38:08.493Z,1192.00
2023-03-26T15:39:08.512Z,1160.00
2023-03-26T15:40:08.528Z,1112.00
2023-03-26T15:41:08.467Z,1060.00
2023-03-26T15:42:08.431Z,1028.00
2023-03-26T15:43:08.527Z,1004.00
2023-03-26T15:44:23.510Z,988.00
2023-03-26T15:45:09.478Z,1008.00
2023-03-26T15:46:08.446Z,1052.00
2023-03-26T15:47:08.548Z,1108.00
2023-03-26T15:48:11.147Z,1144.00
2023-03-26T15:49:09.708Z,1172.00
2023-03-26T15:50:08.363Z,1192.00
2023-03-26T15:51:08.385Z,1196.00
2023-03-26T15:52:08.379Z,1196.00
2023-03-26T15:53:08.365Z,1200.00
2023-03-26T15:54:08.361Z,1224.00
2023-03-26T15:55:08.353Z,1252.00
2023-03-26T15:56:08.352Z,1280.00
2023-03-26T15:57:08.362Z,1308.00
2023-03-26T15:58:08.320Z,1332.00
2023-03-26T15:59:09.151Z,1368.00
2023-03-26T16:00:08.239Z,1408.00
2023-03-26T16:01:08.310Z,1444.00
2023-03-26T16:02:08.283Z,1484.00
2023-03-26T16:03:08.263Z,1496.00
2023-03-26T16:04:08.472Z,1500.00
2023-03-26T16:05:08.264Z,1492.00
2023-03-26T16:06:08.194Z,1484.00
2023-03-26T16:07:08.192Z,1468.00
2023-03-26T16:08:08.210Z,1452.00
2023-03-26T16:09:08.197Z,1436.00
2023-03-26T16:10:08.165Z,1420.00
2023-03-26T16:11:08.187Z,1396.00
2023-03-26T16:12:08.113Z,1360.00
2023-03-26T16:13:08.160Z,1312.00
2023-03-26T16:14:08.176Z,1260.00
2023-03-26T16:15:08.144Z,1208.00
2023-03-26T16:16:08.122Z,1160.00
2023-03-26T16:17:08.121Z,1124.00
2023-03-26T16:18:08.140Z,1100.00
2023-03-26T16:19:08.046Z,1084.00
2023-03-26T16:20:08.088Z,1068.00
2023-03-26T16:21:08.092Z,1048.00
2023-03-26T16:22:09.212Z,1024.00
2023-03-26T16:23:08.041Z,1000.00
2023-03-26T16:24:08.241Z,976.00
2023-03-26T16:25:27.281Z,952.00
2023-03-26T16:26:08.035Z,932.00
2023-03-26T16:27:08.059Z,912.00
2023-03-26T16:28:08.015Z,896.00
2023-03-26T16:29:08.068Z,880.00
2023-03-26T16:30:07.958Z,856.00
2023-03-26T16:31:23.470Z,832.00
2023-03-26T16:32:08.972Z,808.00
2023-03-26T16:33:07.976Z,788.00
2023-03-26T16:34:07.994Z,772.00
2023-03-26T16:35:07.947Z,748.00
2023-03-26T16:36:08.679Z,732.00
2023-03-26T16:37:07.863Z,704.00
2023-03-26T16:38:07.880Z,684.00
2023-03-26T16:39:07.943Z,660.00
2023-03-26T16:40:07.880Z,632.00
2023-03-26T16:41:07.896Z,608.00
2023-03-26T16:42:07.873Z,576.00
2023-03-26T16:43:07.832Z,552.00
2023-03-26T16:44:07.834Z,532.00
2023-03-26T16:45:07.766Z,520.00
2023-03-26T16:46:07.841Z,508.00
2023-03-26T16:47:07.750Z,500.00
2023-03-26T16:48:07.902Z,484.00
2023-03-26T16:49:07.778Z,472.00
2023-03-26T16:50:09.537Z,456.00
2023-03-26T16:51:07.758Z,440.00
2023-03-26T16:52:08.788Z,424.00
2023-03-26T16:53:07.741Z,408.00
2023-03-26T16:54:07.784Z,392.00
2023-03-26T16:55:07.697Z,376.00
2023-03-26T16:56:07.703Z,356.00
2023-03-26T16:57:08.746Z,336.00
2023-03-26T16:58:07.724Z,320.00
2023-03-26T16:59:07.648Z,304.00
2023-03-26T17:00:08.027Z,292.00
2023-03-26T17:01:07.648Z,284.00
2023-03-26T17:02:07.723Z,280.00
2023-03-26T17:03:07.811Z,280.00
2023-03-26T17:04:07.647Z,280.00
2023-03-26T17:05:07.600Z,276.00
2023-03-26T17:06:07.598Z,276.00
2023-03-26T17:07:07.641Z,276.00
2023-03-26T17:08:07.667Z,272.00
2023-03-26T17:09:08.853Z,264.00
2023-03-26T17:10:07.598Z,256.00
2023-03-26T17:11:07.609Z,248.00
2023-03-26T17:12:07.549Z,236.00
2023-03-26T17:13:07.639Z,224.00
2023-03-26T17:14:07.557Z,208.00
2023-03-26T17:15:07.605Z,184.00
2023-03-26T17:16:07.552Z,168.00
2023-03-26T17:17:07.483Z,160.00
2023-03-26T17:18:07.742Z,152.00
2023-03-26T17:19:07.619Z,152.00
2023-03-26T17:20:07.524Z,152.00
2023-03-26T17:21:07.444Z,148.00
2023-03-26T17:22:07.451Z,148.00
2023-03-26T17:23:07.438Z,140.00
2023-03-26T17:24:07.446Z,132.00
2023-03-26T17:25:08.437Z,128.00
2023-03-26T17:26:07.429Z,116.00
2023-03-26T17:27:07.390Z,112.00
2023-03-26T17:28:07.401Z,104.00
2023-03-26T17:29:07.482Z,96.00
2023-03-26T17:30:07.361Z,92.00
2023-03-26T17:31:07.418Z,84.00
2023-03-26T17:32:07.329Z,76.00
2023-03-26T17:33:07.297Z,76.00
2023-03-26T17:34:07.424Z,68.00
2023-03-26T17:35:07.391Z,64.00
2023-03-26T17:36:07.328Z,52.00
2023-03-26T17:37:07.318Z,44.00
2023-03-26T17:38:07.369Z,40.00
2023-03-26T17:39:07.286Z,36.00
2023-03-26T17:40:07.263Z,40.00
2023-03-26T17:41:07.833Z,36.00
2023-03-26T17:42:07.252Z,36.00
2023-03-26T17:43:07.294Z,32.00
2023-03-26T17:44:07.804Z,32.00
2023-03-26T17:45:07.201Z,28.00
2023-03-26T17:46:07.254Z,24.00
2023-03-26T17:47:07.188Z,24.00
2023-03-26T17:48:07.245Z,20.00
2023-03-26T17:49:07.224Z,16.00
2023-03-26T17:50:07.209Z,16.00
2023-03-26T17:51:07.187Z,8.00
2023-03-26T17:52:07.197Z,8.00
2023-03-26T17:53:07.142Z,8.00
2023-03-26T17:54:07.188Z,8.00
2023-03-26T17:55:07.159Z,8.00
2023-03-26T17:56:07.112Z,8.00
2023-03-26T17:57:07.132Z,4.00
2023-03-26T17:58:07.119Z,4.00
2023-03-26T17:59:11.447Z,4.00
2023-03-26T18:00:07.075Z,0.00
2023-03-26T18:01:07.081Z,4.00
2023-03-26T18:02:07.150Z,4.00
2023-03-26T18:03:07.160Z,0.00
2023-03-26T18:04:07.101Z,0.00
2023-03-26T18:05:07.074Z,4.00
2023-03-26T18:06:07.650Z,4.00
2023-03-26T18:07:07.027Z,0.00
2023-03-26T18:08:06.986Z,0.00
2023-03-26T18:09:08.073Z,0.00
2023-03-26T18:10:06.990Z,0.00
2023-03-26T18:11:07.834Z,0.00
2023-03-26T18:12:06.963Z,0.00
2023-03-26T18:13:06.969Z,0.00
2023-03-26T18:14:06.986Z,0.00
2023-03-26T18:15:06.929Z,0.00
2023-03-26T18:16:06.949Z,0.00
2023-03-26T18:17:06.921Z,0.00
2023-03-26T18:18:06.989Z,0.00
2023-03-26T18:19:06.891Z,0.00
2023-03-26T18:20:06.849Z,0.00
2023-03-26T18:21:06.875Z,0.00
2023-03-26T18:22:06.911Z,0.00
2023-03-26T18:23:06.829Z,0.00
2023-03-26T18:24:06.866Z,0.00
2023-03-26T18:25:06.818Z,0.00
2023-03-26T18:26:06.815Z,0.00
2023-03-26T18:27:06.828Z,0.00
2023-03-26T18:28:06.802Z,0.00
2023-03-26T18:29:06.840Z,0.00
2023-03-26T18:30:06.813Z,0.00
2023-03-26T18:31:06.716Z,0.00
2023-03-26T18:32:06.829Z,0.00
2023-03-26T18:33:06.794Z,0.00
2023-03-26T18:34:06.805Z,0.00
2023-03-26T18:35:06.692Z,0.00
2023-03-26T18:36:07.719Z,0.00
2023-03-26T18:37:06.747Z,0.00
2023-03-26T18:38:06.664Z,0.00
2023-03-26T18:39:06.697Z,0.00
2023-03-26T18:40:06.685Z,0.00
2023-03-26T18:41:06.650Z,0.00
2023-03-26T18:42:06.619Z,0.00
2023-03-26T18:43:07.168Z,0.00
2023-03-26T18:44:06.641Z,0.00
2023-03-26T18:45:06.584Z,0.00
2023-03-26T18:46:06.682Z,0.00
2023-03-26T18:47:06.570Z,0.00
2023-03-26T18:48:06.691Z,0.00
2023-03-26T18:49:06.589Z,0.00
2023-03-26T18:50:06.535Z,0.00
2023-03-26T18:51:06.584Z,0.00
2023-03-26T18:52:06.548Z,0.00